sensor_id;sensor_type;location;lat;lon;timestamp;pressure;altitude;pressure_sealevel;temperature;humidity
70930;BME280;58588;48.102;19.682;2023-08-06T00:01:15;98132.31;;;23.22;100.00
70930;BME280;58588;48.102;19.682;2023-08-06T00:04:19;98119.81;;;23.44;100.00
70930;BME280;58588;48.102;19.682;2023-08-06T00:07:21;98133.13;;;23.23;100.00
70930;BME280;58588;48.102;19.682;2023-08-06T00:10:23;98141.00;;;22.97;100.00
70930;BME280;58588;48.102;19.682;2023-08-06T00:13:26;98148.56;;;23.05;100.00
70930;BME280;58588;48.102;19.682;2023-08-06T00:16:28;98149.09;;;22.88;100.00
70930;BME280;58588;48.102;19.682;2023-08-06T00:19:30;98163.66;;;22.89;100.00
70930;BME280;58588;48.102;19.682;2023-08-06T00:22:32;98174.94;;;23.06;100.00
70930;BME280;58588;48.102;19.682;2023-08-06T00:25:34;98175.63;;;22.98;100.00
70930;BME280;58588;48.102;19.682;2023-08-06T00:28:37;98186.44;;;23.08;100.00
70930;BME280;58588;48.102;19.682;2023-08-06T00:31:39;98177.31;;;23.27;100.00
70930;BME280;58588;48.102;19.682;2023-08-06T00:34:41;98171.06;;;23.40;100.00
70930;BME280;58588;48.102;19.682;2023-08-06T00:37:43;98160.47;;;23.33;100.00
70930;BME280;58588;48.102;19.682;2023-08-06T00:40:45;98167.19;;;23.41;100.00
70930;BME280;58588;48.102;19.682;2023-08-06T00:43:48;98169.94;;;23.41;100.00
70930;BME280;58588;48.102;19.682;2023-08-06T00:46:50;98159.94;;;23.64;100.00
70930;BME280;58588;48.102;19.682;2023-08-06T00:49:52;98146.06;;;23.69;100.00
70930;BME280;58588;48.102;19.682;2023-08-06T00:52:54;98148.63;;;23.65;100.00
70930;BME280;58588;48.102;19.682;2023-08-06T00:55:56;98145.38;;;23.63;100.00
70930;BME280;58588;48.102;19.682;2023-08-06T00:59:01;98124.31;;;23.54;100.00
70930;BME280;58588;48.102;19.682;2023-08-06T01:02:03;98121.16;;;23.60;100.00
70930;BME280;58588;48.102;19.682;2023-08-06T01:05:06;98125.78;;;23.65;100.00
70930;BME280;58588;48.102;19.682;2023-08-06T01:08:15;98125.53;;;23.61;100.00
70930;BME280;58588;48.102;19.682;2023-08-06T01:11:40;98117.00;;;23.63;100.00
70930;BME280;58588;48.102;19.682;2023-08-06T01:14:52;98126.13;;;23.44;100.00
70930;BME280;58588;48.102;19.682;2023-08-06T01:17:55;98130.22;;;23.47;100.00
70930;BME280;58588;48.102;19.682;2023-08-06T01:20:59;98128.00;;;23.63;100.00
70930;BME280;58588;48.102;19.682;2023-08-06T01:24:01;98124.00;;;23.55;100.00
70930;BME280;58588;48.102;19.682;2023-08-06T01:27:07;98109.03;;;23.47;100.00
70930;BME280;58588;48.102;19.682;2023-08-06T01:30:13;98097.63;;;23.54;100.00
70930;BME280;58588;48.102;19.682;2023-08-06T01:33:21;98083.25;;;23.57;100.00
70930;BME280;58588;48.102;19.682;2023-08-06T01:36:25;98067.13;;;23.23;100.00
70930;BME280;58588;48.102;19.682;2023-08-06T01:39:30;98063.00;;;22.93;100.00
70930;BME280;58588;48.102;19.682;2023-08-06T01:42:34;98059.72;;;22.91;100.00
70930;BME280;58588;48.102;19.682;2023-08-06T01:45:36;98065.19;;;23.10;100.00
70930;BME280;58588;48.102;19.682;2023-08-06T01:48:38;98056.78;;;22.87;100.00
70930;BME280;58588;48.102;19.682;2023-08-06T01:51:41;98046.63;;;23.02;100.00
70930;BME280;58588;48.102;19.682;2023-08-06T01:54:43;98051.63;;;23.00;100.00
70930;BME280;58588;48.102;19.682;2023-08-06T01:57:45;98047.66;;;23.06;100.00
70930;BME280;58588;48.102;19.682;2023-08-06T02:00:47;98050.81;;;22.99;100.00
70930;BME280;58588;48.102;19.682;2023-08-06T02:03:49;98045.81;;;23.15;100.00
70930;BME280;58588;48.102;19.682;2023-08-06T02:06:54;98044.06;;;22.91;100.00
70930;BME280;58588;48.102;19.682;2023-08-06T02:09:56;98047.47;;;23.16;100.00
70930;BME280;58588;48.102;19.682;2023-08-06T02:12:58;98050.50;;;23.14;100.00
70930;BME280;58588;48.102;19.682;2023-08-06T02:16:00;98045.44;;;23.21;100.00
70930;BME280;58588;48.102;19.682;2023-08-06T02:19:01;98041.34;;;23.19;100.00
70930;BME280;58588;48.102;19.682;2023-08-06T02:22:05;98041.34;;;23.19;100.00
70930;BME280;58588;48.102;19.682;2023-08-06T02:25:07;98048.38;;;22.98;100.00
70930;BME280;58588;48.102;19.682;2023-08-06T02:28:09;98061.75;;;22.85;100.00
70930;BME280;58588;48.102;19.682;2023-08-06T02:31:11;98060.44;;;22.96;100.00
70930;BME280;58588;48.102;19.682;2023-08-06T02:34:13;98055.06;;;22.91;100.00
70930;BME280;58588;48.102;19.682;2023-08-06T02:37:16;98057.44;;;22.79;100.00
70930;BME280;58588;48.102;19.682;2023-08-06T02:40:18;98061.19;;;22.83;100.00
70930;BME280;58588;48.102;19.682;2023-08-06T02:43:20;98053.50;;;22.85;100.00
70930;BME280;58588;48.102;19.682;2023-08-06T02:46:22;98039.53;;;22.82;100.00
70930;BME280;58588;48.102;19.682;2023-08-06T02:49:23;98034.44;;;22.75;100.00
70930;BME280;58588;48.102;19.682;2023-08-06T02:52:27;98035.88;;;22.86;100.00
70930;BME280;58588;48.102;19.682;2023-08-06T02:55:29;98034.44;;;22.75;100.00
70930;BME280;58588;48.102;19.682;2023-08-06T02:58:31;98031.84;;;22.65;100.00
70930;BME280;58588;48.102;19.682;2023-08-06T03:01:32;98024.66;;;22.83;100.00
70930;BME280;58588;48.102;19.682;2023-08-06T03:04:34;98022.41;;;22.71;100.00
70930;BME280;58588;48.102;19.682;2023-08-06T03:07:37;98025.56;;;22.78;100.00
70930;BME280;58588;48.102;19.682;2023-08-06T03:10:39;98021.84;;;22.55;100.00
70930;BME280;58588;48.102;19.682;2023-08-06T03:13:41;98022.91;;;22.40;100.00
70930;BME280;58588;48.102;19.682;2023-08-06T03:16:43;98017.00;;;22.33;100.00
70930;BME280;58588;48.102;19.682;2023-08-06T03:19:45;98010.84;;;22.23;100.00
70930;BME280;58588;48.102;19.682;2023-08-06T03:22:49;97999.69;;;22.33;100.00
70930;BME280;58588;48.102;19.682;2023-08-06T03:25:51;97992.31;;;22.47;100.00
70930;BME280;58588;48.102;19.682;2023-08-06T03:28:53;97977.81;;;22.09;100.00
70930;BME280;58588;48.102;19.682;2023-08-06T03:31:55;97984.19;;;21.85;100.00
70930;BME280;58588;48.102;19.682;2023-08-06T03:34:57;97991.97;;;21.59;100.00
70930;BME280;58588;48.102;19.682;2023-08-06T03:38:00;97980.31;;;21.68;100.00
70930;BME280;58588;48.102;19.682;2023-08-06T03:41:02;97965.56;;;21.63;100.00
70930;BME280;58588;48.102;19.682;2023-08-06T03:44:04;97966.53;;;21.73;100.00
70930;BME280;58588;48.102;19.682;2023-08-06T03:47:05;97958.31;;;21.73;100.00
70930;BME280;58588;48.102;19.682;2023-08-06T03:50:08;97957.13;;;21.79;100.00
70930;BME280;58588;48.102;19.682;2023-08-06T03:53:11;97957.44;;;21.77;100.00
70930;BME280;58588;48.102;19.682;2023-08-06T03:56:13;97959.50;;;21.85;100.00
70930;BME280;58588;48.102;19.682;2023-08-06T03:59:15;97958.75;;;21.80;100.00
70930;BME280;58588;48.102;19.682;2023-08-06T04:02:17;97960.31;;;21.86;100.00
70930;BME280;58588;48.102;19.682;2023-08-06T04:05:19;97955.41;;;21.64;100.00
70930;BME280;58588;48.102;19.682;2023-08-06T04:08:23;97946.91;;;21.66;100.00
70930;BME280;58588;48.102;19.682;2023-08-06T04:11:25;97955.03;;;21.52;100.00
70930;BME280;58588;48.102;19.682;2023-08-06T04:14:27;97954.75;;;21.53;100.00
70930;BME280;58588;48.102;19.682;2023-08-06T04:17:29;97944.88;;;21.52;100.00
70930;BME280;58588;48.102;19.682;2023-08-06T04:20:31;97945.91;;;21.56;100.00
70930;BME280;58588;48.102;19.682;2023-08-06T04:23:34;97944.38;;;21.69;100.00
70930;BME280;58588;48.102;19.682;2023-08-06T04:26:36;97941.13;;;21.67;100.00
70930;BME280;58588;48.102;19.682;2023-08-06T04:29:38;97941.25;;;21.57;100.00
70930;BME280;58588;48.102;19.682;2023-08-06T04:32:41;97942.06;;;21.57;100.00
70930;BME280;58588;48.102;19.682;2023-08-06T04:35:43;97940.28;;;21.67;100.00
70930;BME280;58588;48.102;19.682;2023-08-06T04:38:46;97940.19;;;21.53;100.00
70930;BME280;58588;48.102;19.682;2023-08-06T04:41:48;97936.94;;;21.51;100.00
70930;BME280;58588;48.102;19.682;2023-08-06T04:44:50;97937.81;;;21.46;100.00
70930;BME280;58588;48.102;19.682;2023-08-06T04:47:52;97935.19;;;21.60;100.00
70930;BME280;58588;48.102;19.682;2023-08-06T04:50:54;97931.31;;;21.61;100.00
70930;BME280;58588;48.102;19.682;2023-08-06T04:53:58;97932.06;;;21.67;100.00
70930;BME280;58588;48.102;19.682;2023-08-06T04:56:59;97924.78;;;21.57;100.00
70930;BME280;58588;48.102;19.682;2023-08-06T05:00:01;97929.69;;;21.60;100.00
70930;BME280;58588;48.102;19.682;2023-08-06T05:03:05;97920.34;;;21.80;100.00
70930;BME280;58588;48.102;19.682;2023-08-06T05:06:07;97918.72;;;21.79;100.00
70930;BME280;58588;48.102;19.682;2023-08-06T05:09:11;97912.13;;;21.80;100.00
70930;BME280;58588;48.102;19.682;2023-08-06T05:12:13;97915.09;;;21.83;100.00
70930;BME280;58588;48.102;19.682;2023-08-06T05:15:14;97902.06;;;21.89;100.00
70930;BME280;58588;48.102;19.682;2023-08-06T05:18:16;97900.16;;;22.08;100.00
70930;BME280;58588;48.102;19.682;2023-08-06T05:21:18;97899.09;;;22.23;100.00
70930;BME280;58588;48.102;19.682;2023-08-06T05:24:22;97896.25;;;22.28;100.00
70930;BME280;58588;48.102;19.682;2023-08-06T05:27:23;97875.66;;;22.44;100.00
70930;BME280;58588;48.102;19.682;2023-08-06T05:30:25;97887.03;;;22.52;100.00
70930;BME280;58588;48.102;19.682;2023-08-06T05:33:27;97895.47;;;22.41;100.00
70930;BME280;58588;48.102;19.682;2023-08-06T05:36:29;97894.63;;;22.27;100.00
70930;BME280;58588;48.102;19.682;2023-08-06T05:39:32;97900.63;;;22.29;100.00
70930;BME280;58588;48.102;19.682;2023-08-06T05:42:34;97895.75;;;22.26;100.00
70930;BME280;58588;48.102;19.682;2023-08-06T05:45:36;97889.34;;;22.31;100.00
70930;BME280;58588;48.102;19.682;2023-08-06T05:48:38;97890.94;;;22.18;100.00
70930;BME280;58588;48.102;19.682;2023-08-06T05:51:41;97885.88;;;22.25;100.00
70930;BME280;58588;48.102;19.682;2023-08-06T05:54:44;97883.44;;;22.05;100.00
70930;BME280;58588;48.102;19.682;2023-08-06T05:57:46;97875.97;;;22.10;100.00
70930;BME280;58588;48.102;19.682;2023-08-06T06:00:48;97879.53;;;22.11;100.00
70930;BME280;58588;48.102;19.682;2023-08-06T06:03:50;97887.38;;;21.99;100.00
70930;BME280;58588;48.102;19.682;2023-08-06T06:06:52;97886.34;;;21.95;100.00
70930;BME280;58588;48.102;19.682;2023-08-06T06:09:55;97883.78;;;21.47;100.00
70930;BME280;58588;48.102;19.682;2023-08-06T06:12:57;97887.84;;;21.11;100.00
70930;BME280;58588;48.102;19.682;2023-08-06T06:15:59;97890.84;;;21.34;100.00
70930;BME280;58588;48.102;19.682;2023-08-06T06:19:01;97875.13;;;21.40;100.00
70930;BME280;58588;48.102;19.682;2023-08-06T06:22:03;97873.00;;;21.55;100.00
70930;BME280;58588;48.102;19.682;2023-08-06T06:25:07;97873.44;;;21.44;100.00
70930;BME280;58588;48.102;19.682;2023-08-06T06:28:10;97869.50;;;21.50;100.00
70930;BME280;58588;48.102;19.682;2023-08-06T06:31:12;97874.25;;;21.63;100.00
70930;BME280;58588;48.102;19.682;2023-08-06T06:34:13;97875.44;;;21.57;100.00
70930;BME280;58588;48.102;19.682;2023-08-06T06:37:15;97870.00;;;21.52;100.00
70930;BME280;58588;48.102;19.682;2023-08-06T06:40:19;97864.31;;;21.67;100.00
70930;BME280;58588;48.102;19.682;2023-08-06T06:43:20;97854.59;;;21.75;100.00
70930;BME280;58588;48.102;19.682;2023-08-06T06:46:22;97857.31;;;21.75;100.00
70930;BME280;58588;48.102;19.682;2023-08-06T06:49:24;97853.44;;;22.13;100.00
70930;BME280;58588;48.102;19.682;2023-08-06T06:52:26;97844.88;;;22.15;100.00
70930;BME280;58588;48.102;19.682;2023-08-06T06:55:29;97851.78;;;22.12;100.00
70930;BME280;58588;48.102;19.682;2023-08-06T06:58:32;97847.47;;;22.06;100.00
70930;BME280;58588;48.102;19.682;2023-08-06T07:01:34;97853.66;;;21.98;100.00
70930;BME280;58588;48.102;19.682;2023-08-06T07:04:35;97854.19;;;21.81;100.00
70930;BME280;58588;48.102;19.682;2023-08-06T07:07:37;97845.38;;;21.84;100.00
70930;BME280;58588;48.102;19.682;2023-08-06T07:10:42;97855.69;;;21.74;100.00
70930;BME280;58588;48.102;19.682;2023-08-06T07:13:44;97860.22;;;21.83;100.00
70930;BME280;58588;48.102;19.682;2023-08-06T07:16:46;97865.31;;;21.15;100.00
70930;BME280;58588;48.102;19.682;2023-08-06T07:19:47;97875.22;;;21.10;100.00
70930;BME280;58588;48.102;19.682;2023-08-06T07:22:49;97869.72;;;20.92;100.00
70930;BME280;58588;48.102;19.682;2023-08-06T07:25:53;97868.03;;;20.72;100.00
70930;BME280;58588;48.102;19.682;2023-08-06T07:28:54;97868.78;;;20.77;100.00
70930;BME280;58588;48.102;19.682;2023-08-06T07:31:56;97867.38;;;20.80;100.00
70930;BME280;58588;48.102;19.682;2023-08-06T07:34:58;97860.56;;;21.01;100.00
70930;BME280;58588;48.102;19.682;2023-08-06T07:38:01;97854.66;;;21.13;100.00
70930;BME280;58588;48.102;19.682;2023-08-06T07:41:04;97856.28;;;21.14;100.00
70930;BME280;58588;48.102;19.682;2023-08-06T07:44:06;97862.78;;;21.42;100.00
70930;BME280;58588;48.102;19.682;2023-08-06T07:47:08;97859.25;;;21.18;100.00
70930;BME280;58588;48.102;19.682;2023-08-06T07:50:10;97862.88;;;21.13;100.00
70930;BME280;58588;48.102;19.682;2023-08-06T07:53:12;97867.22;;;21.14;100.00
70930;BME280;58588;48.102;19.682;2023-08-06T07:56:15;97854.25;;;21.01;100.00
70930;BME280;58588;48.102;19.682;2023-08-06T07:59:17;97864.13;;;21.21;100.00
70930;BME280;58588;48.102;19.682;2023-08-06T08:02:20;97855.97;;;21.16;100.00
70930;BME280;58588;48.102;19.682;2023-08-06T08:05:22;97855.09;;;21.20;100.00
70930;BME280;58588;48.102;19.682;2023-08-06T08:08:24;97850.56;;;21.10;100.00
70930;BME280;58588;48.102;19.682;2023-08-06T08:11:27;97858.13;;;20.76;100.00
70930;BME280;58588;48.102;19.682;2023-08-06T08:14:29;97846.00;;;20.82;100.00
70930;BME280;58588;48.102;19.682;2023-08-06T08:17:35;97849.78;;;20.62;100.00
70930;BME280;58588;48.102;19.682;2023-08-06T08:20:38;97850.97;;;20.27;100.00
70930;BME280;58588;48.102;19.682;2023-08-06T08:23:40;97855.91;;;20.54;100.00
70930;BME280;58588;48.102;19.682;2023-08-06T08:26:44;97855.09;;;20.24;100.00
70930;BME280;58588;48.102;19.682;2023-08-06T08:29:45;97861.03;;;20.02;100.00
70930;BME280;58588;48.102;19.682;2023-08-06T08:32:47;97865.16;;;20.05;100.00
70930;BME280;58588;48.102;19.682;2023-08-06T08:35:49;97858.00;;;19.75;100.00
70930;BME280;58588;48.102;19.682;2023-08-06T08:38:51;97862.38;;;20.10;100.00
70930;BME280;58588;48.102;19.682;2023-08-06T08:41:55;97861.16;;;20.21;100.00
70930;BME280;58588;48.102;19.682;2023-08-06T08:44:57;97865.00;;;20.44;100.00
70930;BME280;58588;48.102;19.682;2023-08-06T08:47:59;97857.94;;;20.14;100.00
70930;BME280;58588;48.102;19.682;2023-08-06T08:51:02;97861.59;;;20.34;100.00
70930;BME280;58588;48.102;19.682;2023-08-06T08:54:13;97867.50;;;20.46;100.00
70930;BME280;58588;48.102;19.682;2023-08-06T08:57:18;97861.28;;;20.35;100.00
70930;BME280;58588;48.102;19.682;2023-08-06T09:00:20;97867.84;;;20.39;100.00
70930;BME280;58588;48.102;19.682;2023-08-06T09:03:22;97860.13;;;20.41;100.00
70930;BME280;58588;48.102;19.682;2023-08-06T09:06:25;97858.59;;;20.30;100.00
70930;BME280;58588;48.102;19.682;2023-08-06T09:09:31;97867.91;;;20.00;100.00
70930;BME280;58588;48.102;19.682;2023-08-06T09:12:38;97875.66;;;20.22;100.00
70930;BME280;58588;48.102;19.682;2023-08-06T09:15:40;97887.97;;;20.19;100.00
70930;BME280;58588;48.102;19.682;2023-08-06T09:18:44;97885.06;;;19.76;100.00
70930;BME280;58588;48.102;19.682;2023-08-06T09:21:46;97888.66;;;19.72;100.00
70930;BME280;58588;48.102;19.682;2023-08-06T09:24:49;97884.06;;;19.96;100.00
70930;BME280;58588;48.102;19.682;2023-08-06T09:27:52;97885.63;;;20.08;100.00
70930;BME280;58588;48.102;19.682;2023-08-06T09:30:54;97882.19;;;19.52;100.00
70930;BME280;58588;48.102;19.682;2023-08-06T09:33:59;97891.66;;;19.26;100.00
70930;BME280;58588;48.102;19.682;2023-08-06T09:37:03;97897.75;;;19.08;100.00
70930;BME280;58588;48.102;19.682;2023-08-06T09:40:24;97899.22;;;18.85;100.00
70930;BME280;58588;48.102;19.682;2023-08-06T09:43:27;97906.91;;;18.78;100.00
70930;BME280;58588;48.102;19.682;2023-08-06T09:46:32;97907.41;;;18.85;100.00
70930;BME280;58588;48.102;19.682;2023-08-06T09:49:43;97909.63;;;18.57;100.00
70930;BME280;58588;48.102;19.682;2023-08-06T09:52:47;97910.44;;;18.73;100.00
70930;BME280;58588;48.102;19.682;2023-08-06T09:55:49;97904.34;;;19.02;100.00
70930;BME280;58588;48.102;19.682;2023-08-06T09:58:52;97906.34;;;19.35;100.00
70930;BME280;58588;48.102;19.682;2023-08-06T10:01:55;97917.69;;;19.68;100.00
70930;BME280;58588;48.102;19.682;2023-08-06T10:04:58;97910.75;;;19.81;100.00
70930;BME280;58588;48.102;19.682;2023-08-06T10:08:01;97902.69;;;19.94;100.00
70930;BME280;58588;48.102;19.682;2023-08-06T10:11:04;97889.69;;;19.81;100.00
70930;BME280;58588;48.102;19.682;2023-08-06T10:14:20;97891.75;;;19.94;100.00
70930;BME280;58588;48.102;19.682;2023-08-06T10:17:23;97885.28;;;20.96;100.00
70930;BME280;58588;48.102;19.682;2023-08-06T10:20:25;97873.28;;;21.11;100.00
70930;BME280;58588;48.102;19.682;2023-08-06T10:23:33;97869.81;;;22.00;100.00
70930;BME280;58588;48.102;19.682;2023-08-06T10:26:36;97871.16;;;22.02;100.00
70930;BME280;58588;48.102;19.682;2023-08-06T10:29:39;97859.59;;;21.54;100.00
70930;BME280;58588;48.102;19.682;2023-08-06T10:32:47;97842.50;;;21.00;100.00
70930;BME280;58588;48.102;19.682;2023-08-06T10:35:50;97859.06;;;22.03;100.00
70930;BME280;58588;48.102;19.682;2023-08-06T10:38:57;97846.72;;;21.68;100.00
70930;BME280;58588;48.102;19.682;2023-08-06T10:42:01;97865.72;;;21.46;100.00
70930;BME280;58588;48.102;19.682;2023-08-06T10:45:17;97879.78;;;20.96;100.00
70930;BME280;58588;48.102;19.682;2023-08-06T10:48:29;97857.59;;;21.59;100.00
70930;BME280;58588;48.102;19.682;2023-08-06T10:51:31;97876.06;;;21.86;100.00
70930;BME280;58588;48.102;19.682;2023-08-06T10:54:33;97882.28;;;21.92;100.00
70930;BME280;58588;48.102;19.682;2023-08-06T10:57:35;97895.09;;;21.21;100.00
70930;BME280;58588;48.102;19.682;2023-08-06T11:00:39;97891.06;;;20.13;100.00
70930;BME280;58588;48.102;19.682;2023-08-06T11:03:41;97901.38;;;20.79;100.00
70930;BME280;58588;48.102;19.682;2023-08-06T11:06:44;97886.44;;;20.66;100.00
70930;BME280;58588;48.102;19.682;2023-08-06T11:09:53;97899.97;;;20.81;100.00
70930;BME280;58588;48.102;19.682;2023-08-06T11:13:02;97896.28;;;20.67;100.00
70930;BME280;58588;48.102;19.682;2023-08-06T11:16:06;97899.19;;;21.24;100.00
70930;BME280;58588;48.102;19.682;2023-08-06T11:19:08;97895.38;;;21.62;100.00
70930;BME280;58588;48.102;19.682;2023-08-06T11:22:10;97890.63;;;21.30;100.00
70930;BME280;58588;48.102;19.682;2023-08-06T11:25:12;97897.31;;;21.43;100.00
70930;BME280;58588;48.102;19.682;2023-08-06T11:28:14;97906.03;;;21.83;100.00
70930;BME280;58588;48.102;19.682;2023-08-06T11:31:20;97909.38;;;20.99;100.00
70930;BME280;58588;48.102;19.682;2023-08-06T11:34:23;97917.22;;;20.82;100.00
70930;BME280;58588;48.102;19.682;2023-08-06T11:37:24;97921.59;;;20.25;100.00
70930;BME280;58588;48.102;19.682;2023-08-06T11:40:26;97924.38;;;20.20;100.00
70930;BME280;58588;48.102;19.682;2023-08-06T11:43:30;97933.13;;;19.88;100.00
70930;BME280;58588;48.102;19.682;2023-08-06T11:46:52;97933.75;;;20.43;100.00
70930;BME280;58588;48.102;19.682;2023-08-06T11:49:56;97936.56;;;20.03;100.00
70930;BME280;58588;48.102;19.682;2023-08-06T11:52:59;97938.47;;;20.03;100.00
70930;BME280;58588;48.102;19.682;2023-08-06T11:56:01;97932.84;;;19.84;100.00
70930;BME280;58588;48.102;19.682;2023-08-06T11:59:03;97947.91;;;20.21;100.00
70930;BME280;58588;48.102;19.682;2023-08-06T12:02:09;97948.47;;;20.18;100.00
70930;BME280;58588;48.102;19.682;2023-08-06T12:05:15;97951.31;;;19.68;100.00
70930;BME280;58588;48.102;19.682;2023-08-06T12:08:17;97953.84;;;19.99;100.00
70930;BME280;58588;48.102;19.682;2023-08-06T12:11:21;97957.50;;;19.24;100.00
70930;BME280;58588;48.102;19.682;2023-08-06T12:14:23;97956.47;;;19.70;100.00
70930;BME280;58588;48.102;19.682;2023-08-06T12:17:27;97949.25;;;20.23;100.00
70930;BME280;58588;48.102;19.682;2023-08-06T12:20:29;97943.50;;;20.25;100.00
70930;BME280;58588;48.102;19.682;2023-08-06T12:23:31;97931.00;;;20.43;100.00
70930;BME280;58588;48.102;19.682;2023-08-06T12:26:33;97937.28;;;20.48;100.00
70930;BME280;58588;48.102;19.682;2023-08-06T12:29:35;97920.72;;;21.35;100.00
70930;BME280;58588;48.102;19.682;2023-08-06T12:32:39;97917.75;;;21.32;100.00
70930;BME280;58588;48.102;19.682;2023-08-06T12:35:41;97917.66;;;21.94;100.00
70930;BME280;58588;48.102;19.682;2023-08-06T12:38:42;97922.56;;;22.15;100.00
70930;BME280;58588;48.102;19.682;2023-08-06T12:41:44;97918.88;;;21.50;100.00
70930;BME280;58588;48.102;19.682;2023-08-06T12:44:48;97916.81;;;21.18;100.00
70930;BME280;58588;48.102;19.682;2023-08-06T12:47:51;97916.13;;;21.26;100.00
70930;BME280;58588;48.102;19.682;2023-08-06T12:50:53;97935.63;;;21.24;100.00
70930;BME280;58588;48.102;19.682;2023-08-06T12:53:55;97923.63;;;21.20;100.00
70930;BME280;58588;48.102;19.682;2023-08-06T12:56:57;97918.31;;;21.29;100.00
70930;BME280;58588;48.102;19.682;2023-08-06T12:59:59;97908.78;;;21.64;100.00
70930;BME280;58588;48.102;19.682;2023-08-06T13:03:02;97901.25;;;21.88;100.00
70930;BME280;58588;48.102;19.682;2023-08-06T13:06:04;97903.19;;;22.26;100.00
70930;BME280;58588;48.102;19.682;2023-08-06T13:09:06;97902.31;;;22.11;100.00
70930;BME280;58588;48.102;19.682;2023-08-06T13:12:08;97898.41;;;21.80;100.00
70930;BME280;58588;48.102;19.682;2023-08-06T13:15:10;97914.75;;;22.04;100.00
70930;BME280;58588;48.102;19.682;2023-08-06T13:18:14;97917.16;;;21.73;100.00
70930;BME280;58588;48.102;19.682;2023-08-06T13:21:18;97919.91;;;21.54;100.00
70930;BME280;58588;48.102;19.682;2023-08-06T13:24:20;97931.47;;;21.27;100.00
70930;BME280;58588;48.102;19.682;2023-08-06T13:27:22;97939.31;;;21.15;100.00
70930;BME280;58588;48.102;19.682;2023-08-06T13:30:24;97938.19;;;20.92;100.00
70930;BME280;58588;48.102;19.682;2023-08-06T13:33:27;97940.38;;;20.95;100.00
70930;BME280;58588;48.102;19.682;2023-08-06T13:36:29;97939.78;;;20.98;100.00
70930;BME280;58588;48.102;19.682;2023-08-06T13:39:31;97930.50;;;20.70;100.00
70930;BME280;58588;48.102;19.682;2023-08-06T13:42:33;97941.59;;;21.07;100.00
70930;BME280;58588;48.102;19.682;2023-08-06T13:45:35;97937.38;;;20.91;100.00
70930;BME280;58588;48.102;19.682;2023-08-06T13:48:39;97944.84;;;21.09;100.00
70930;BME280;58588;48.102;19.682;2023-08-06T13:51:41;97948.03;;;21.17;100.00
70930;BME280;58588;48.102;19.682;2023-08-06T13:54:43;97954.50;;;21.31;100.00
70930;BME280;58588;48.102;19.682;2023-08-06T13:57:45;97947.53;;;21.76;100.00
70930;BME280;58588;48.102;19.682;2023-08-06T14:00:47;97951.50;;;22.40;100.00
70930;BME280;58588;48.102;19.682;2023-08-06T14:03:50;97950.97;;;22.85;100.00
70930;BME280;58588;48.102;19.682;2023-08-06T14:06:53;97940.81;;;22.85;100.00
70930;BME280;58588;48.102;19.682;2023-08-06T14:09:55;97951.44;;;23.06;100.00
70930;BME280;58588;48.102;19.682;2023-08-06T14:12:58;97962.84;;;22.53;100.00
70930;BME280;58588;48.102;19.682;2023-08-06T14:16:00;97964.25;;;23.52;100.00
70930;BME280;58588;48.102;19.682;2023-08-06T14:19:04;97961.22;;;24.48;100.00
70930;BME280;58588;48.102;19.682;2023-08-06T14:22:06;97970.09;;;24.45;100.00
70930;BME280;58588;48.102;19.682;2023-08-06T14:25:08;97972.88;;;24.45;100.00
70930;BME280;58588;48.102;19.682;2023-08-06T14:28:10;97963.13;;;24.70;100.00
70930;BME280;58588;48.102;19.682;2023-08-06T14:31:12;97976.97;;;24.34;100.00
70930;BME280;58588;48.102;19.682;2023-08-06T14:34:15;97976.81;;;23.16;100.00
70930;BME280;58588;48.102;19.682;2023-08-06T14:37:17;97976.50;;;23.45;100.00
70930;BME280;58588;48.102;19.682;2023-08-06T14:40:19;97983.91;;;23.59;100.00
70930;BME280;58588;48.102;19.682;2023-08-06T14:43:22;97998.97;;;22.60;100.00
70930;BME280;58588;48.102;19.682;2023-08-06T14:46:24;97988.50;;;22.62;100.00
70930;BME280;58588;48.102;19.682;2023-08-06T14:49:28;97996.28;;;22.03;100.00
70930;BME280;58588;48.102;19.682;2023-08-06T14:52:30;98014.16;;;22.38;100.00
70930;BME280;58588;48.102;19.682;2023-08-06T14:55:32;98007.94;;;22.33;100.00
70930;BME280;58588;48.102;19.682;2023-08-06T14:58:34;98015.56;;;21.98;100.00
70930;BME280;58588;48.102;19.682;2023-08-06T15:01:36;98018.00;;;21.81;100.00
70930;BME280;58588;48.102;19.682;2023-08-06T15:04:39;98024.47;;;22.09;100.00
70930;BME280;58588;48.102;19.682;2023-08-06T15:07:41;98028.06;;;21.67;100.00
70930;BME280;58588;48.102;19.682;2023-08-06T15:10:43;98021.59;;;21.33;100.00
70930;BME280;58588;48.102;19.682;2023-08-06T15:13:51;98032.88;;;21.56;100.00
70930;BME280;58588;48.102;19.682;2023-08-06T15:16:52;98037.25;;;21.33;100.00
70930;BME280;58588;48.102;19.682;2023-08-06T15:19:58;98036.13;;;21.34;100.00
70930;BME280;58588;48.102;19.682;2023-08-06T15:23:00;98039.13;;;21.37;100.00
70930;BME280;58588;48.102;19.682;2023-08-06T15:26:02;98038.25;;;21.42;100.00
70930;BME280;58588;48.102;19.682;2023-08-06T15:29:04;98030.38;;;21.35;100.00
70930;BME280;58588;48.102;19.682;2023-08-06T15:32:06;98035.28;;;20.80;100.00
70930;BME280;58588;48.102;19.682;2023-08-06T15:35:10;98035.88;;;21.06;100.00
70930;BME280;58588;48.102;19.682;2023-08-06T15:38:12;98037.78;;;21.06;100.00
70930;BME280;58588;48.102;19.682;2023-08-06T15:41:14;98036.44;;;21.32;100.00
70930;BME280;58588;48.102;19.682;2023-08-06T15:44:16;98037.97;;;21.15;100.00